createdAt,value
2017-01-21T00:00:24.633Z,47.23
2017-01-21T00:01:05.797Z,47.8
2017-01-21T00:01:45.577Z,47.51
2017-01-21T00:02:26.059Z,47.7
2017-01-21T00:03:06.570Z,47.61
2017-01-21T00:03:47.031Z,47.42
2017-01-21T00:04:27.501Z,47.23
2017-01-21T00:05:07.998Z,47.61
2017-01-21T00:05:48.504Z,47.89
2017-01-21T00:06:29.036Z,47.61
2017-01-21T00:07:09.540Z,47.7
2017-01-21T00:07:50.036Z,47.7
2017-01-21T00:08:30.519Z,47.7
2017-01-21T00:09:11.042Z,47.89
2017-01-21T00:09:51.537Z,47.8
2017-01-21T00:10:32.123Z,47.8
2017-01-21T00:11:12.573Z,47.23
2017-01-21T00:11:53.071Z,47.42
2017-01-21T00:12:33.588Z,47.13
2017-01-21T00:13:14.057Z,46.85
2017-01-21T00:13:54.554Z,46.37
2017-01-21T00:14:35.036Z,46.66
2017-01-21T00:15:15.516Z,47.04
2017-01-21T00:15:56.010Z,47.42
2017-01-21T00:16:36.502Z,47.77
2017-01-21T00:17:17.004Z,47.49
2017-01-21T00:17:57.471Z,47.58
2017-01-21T00:18:37.974Z,47.7
2017-01-21T00:19:18.523Z,47.8
2017-01-21T00:19:59.159Z,47.7
2017-01-21T00:20:40.295Z,47.32
2017-01-21T00:21:20.088Z,47.23
2017-01-21T00:22:00.571Z,47.23
2017-01-21T00:22:41.092Z,47.04
2017-01-21T00:23:21.549Z,46.85
2017-01-21T00:24:02.004Z,46.85
2017-01-21T00:24:42.620Z,46.66
2017-01-21T00:25:23.134Z,47.04
2017-01-21T00:26:03.620Z,46.94
2017-01-21T00:26:44.134Z,47.04
2017-01-21T00:27:24.622Z,47.04
2017-01-21T00:28:05.108Z,46.85
2017-01-21T00:28:45.596Z,47.04
2017-01-21T00:29:26.077Z,46.56
2017-01-21T00:30:06.589Z,46.85
2017-01-21T00:30:47.100Z,46.56
2017-01-21T00:31:27.610Z,47.04
2017-01-21T00:32:08.023Z,46.94
2017-01-21T00:32:48.527Z,46.94
2017-01-21T00:33:29.014Z,47.61
2017-01-21T00:34:09.564Z,47.42
2017-01-21T00:34:50.044Z,47.23
2017-01-21T00:35:30.499Z,47.61
2017-01-21T00:36:11.068Z,46.94
2017-01-21T00:36:51.494Z,47.51
2017-01-21T00:37:32.003Z,47.32
2017-01-21T00:38:12.524Z,47.32
2017-01-21T00:38:53.050Z,47.51
2017-01-21T00:39:33.461Z,47.32
2017-01-21T00:40:14.071Z,47.51
2017-01-21T00:40:54.499Z,47.23
2017-01-21T00:41:35.042Z,47.42
2017-01-21T00:42:15.541Z,47.32
2017-01-21T00:42:56.052Z,47.51
2017-01-21T00:43:36.524Z,47.04
2017-01-21T00:44:17.019Z,46.56
2017-01-21T00:44:57.497Z,47.61
2017-01-21T00:45:37.995Z,47.8
2017-01-21T00:46:18.543Z,47.7
2017-01-21T00:46:59.006Z,47.8
2017-01-21T00:47:39.540Z,47.8
2017-01-21T00:48:20.021Z,47.32
2017-01-21T00:49:00.550Z,47.23
2017-01-21T00:49:41.073Z,47.42
2017-01-21T00:50:21.547Z,47.8
2017-01-21T00:51:02.074Z,47.7
2017-01-21T00:51:42.556Z,47.8
2017-01-21T00:52:23.072Z,47.32
2017-01-21T00:53:03.616Z,47.32
2017-01-21T00:53:44.099Z,47.61
2017-01-21T00:54:24.609Z,47.61
2017-01-21T00:55:05.094Z,46.94
2017-01-21T00:55:45.559Z,47.51
2017-01-21T00:56:26.089Z,47.51
2017-01-21T00:57:06.597Z,47.23
2017-01-21T00:57:47.061Z,46.94
2017-01-21T00:58:27.511Z,46.75
2017-01-21T00:59:08.096Z,46.66
2017-01-21T00:59:48.566Z,46.66
2017-01-21T01:00:29.098Z,46.56
2017-01-21T01:01:09.635Z,46.85
2017-01-21T01:01:50.123Z,46.94
2017-01-21T01:02:30.578Z,46.66
2017-01-21T01:03:11.101Z,46.75
2017-01-21T01:03:51.669Z,46.94
2017-01-21T01:04:32.105Z,47.04
2017-01-21T01:05:12.594Z,47.61
2017-01-21T01:05:53.052Z,47.51
2017-01-21T01:06:33.557Z,47.42
2017-01-21T01:07:14.090Z,47.23
2017-01-21T01:07:54.551Z,46.94
2017-01-21T01:08:35.108Z,47.04
2017-01-21T01:09:15.568Z,47.51
2017-01-21T01:09:56.024Z,47.8
2017-01-21T01:10:36.555Z,47.8
2017-01-21T01:11:17.033Z,47.8
2017-01-21T01:11:57.539Z,47.77
2017-01-21T01:12:38.022Z,47.8
2017-01-21T01:13:18.545Z,47.51
2017-01-21T01:13:58.997Z,47.42
2017-01-21T01:14:39.657Z,47.58
2017-01-21T01:15:20.165Z,47.68
2017-01-21T01:16:00.630Z,47.61
2017-01-21T01:16:41.200Z,47.61
2017-01-21T01:17:21.610Z,47.51
2017-01-21T01:18:02.133Z,47.49
2017-01-21T01:18:42.727Z,47.7
2017-01-21T01:19:23.123Z,47.7
2017-01-21T01:20:03.589Z,47.61
2017-01-21T01:20:44.077Z,47.51
2017-01-21T01:21:24.578Z,47.49
2017-01-21T01:22:05.107Z,47.77
2017-01-21T01:22:45.586Z,47.96
2017-01-21T01:23:26.148Z,48.08
2017-01-21T01:24:06.644Z,48.15
2017-01-21T01:24:47.156Z,48.06
2017-01-21T01:25:27.641Z,48.06
2017-01-21T01:26:08.121Z,48.08
2017-01-21T01:26:48.572Z,48.06
2017-01-21T01:27:29.154Z,47.89
2017-01-21T01:28:09.624Z,48.08
2017-01-21T01:28:50.113Z,47.96
2017-01-21T01:29:30.596Z,47.96
2017-01-21T01:30:11.089Z,47.89
2017-01-21T01:30:51.587Z,48.18
2017-01-21T01:31:32.070Z,48.08
2017-01-21T01:32:12.556Z,48.15
2017-01-21T01:32:53.050Z,47.89
2017-01-21T01:33:33.587Z,47.99
2017-01-21T01:34:14.094Z,47.87
2017-01-21T01:34:54.763Z,48.15
2017-01-21T01:35:35.139Z,48.18
2017-01-21T01:36:15.641Z,48.08
2017-01-21T01:36:56.070Z,47.89
2017-01-21T01:37:36.585Z,47.77
2017-01-21T01:38:17.091Z,48.08
2017-01-21T01:38:57.570Z,48.06
2017-01-21T01:39:38.046Z,48.08
2017-01-21T01:40:18.585Z,47.87
2017-01-21T01:40:59.116Z,48.44
2017-01-21T01:41:39.558Z,48.15
2017-01-21T01:42:20.129Z,48.06
2017-01-21T01:43:00.585Z,48.27
2017-01-21T01:43:41.075Z,48.15
2017-01-21T01:44:23.465Z,47.87
2017-01-21T01:45:03.949Z,48.06
2017-01-21T01:45:44.467Z,48.25
2017-01-21T01:46:24.936Z,48.15
2017-01-21T01:47:05.483Z,48.91
2017-01-21T01:47:45.953Z,48.34
2017-01-21T01:48:26.464Z,48.44
2017-01-21T01:49:06.934Z,49.01
2017-01-21T01:49:47.420Z,48.34
2017-01-21T01:50:27.896Z,48.46
2017-01-21T01:51:08.483Z,48.36
2017-01-21T01:51:48.902Z,48.27
2017-01-21T01:52:29.412Z,48.27
2017-01-21T01:53:09.877Z,48.25
2017-01-21T01:53:50.349Z,48.25
2017-01-21T01:54:30.867Z,48.44
2017-01-21T01:55:11.350Z,48.44
2017-01-21T01:55:51.900Z,48.44
2017-01-21T01:56:32.341Z,48.25
2017-01-21T01:57:12.821Z,48.34
2017-01-21T01:57:53.314Z,48.72
2017-01-21T01:58:33.828Z,49.38
2017-01-21T01:59:14.304Z,48.44
2017-01-21T01:59:54.827Z,48.34
2017-01-21T02:00:35.342Z,48.82
2017-01-21T02:01:15.889Z,48.44
2017-01-21T02:01:56.383Z,48.44
2017-01-21T02:02:36.846Z,48.25
2017-01-21T02:03:17.371Z,48.06
2017-01-21T02:03:57.877Z,48.25
2017-01-21T02:04:38.419Z,48.44
2017-01-21T02:05:18.947Z,48.44
2017-01-21T02:05:59.432Z,48.44
2017-01-21T02:06:39.886Z,48.44
2017-01-21T02:07:20.413Z,48.15
2017-01-21T02:08:01.005Z,48.72
2017-01-21T02:08:41.485Z,48.53
2017-01-21T02:09:21.988Z,49.01
2017-01-21T02:10:02.468Z,48.44
2017-01-21T02:10:43.231Z,48.44
2017-01-21T02:11:23.781Z,48.44
2017-01-21T02:12:04.266Z,48.53
2017-01-21T02:12:44.821Z,48.82
2017-01-21T02:13:25.260Z,48.44
2017-01-21T02:14:05.743Z,48.06
2017-01-21T02:14:46.297Z,48.34
2017-01-21T02:15:26.779Z,48.15
2017-01-21T02:16:07.325Z,48.82
2017-01-21T02:16:47.855Z,49.1
2017-01-21T02:17:28.284Z,48.91
2017-01-21T02:18:08.777Z,49.29
2017-01-21T02:18:49.260Z,49.1
2017-01-21T02:19:29.818Z,49.19
2017-01-21T02:20:10.258Z,49.48
2017-01-21T02:20:50.784Z,49.48
2017-01-21T02:21:31.236Z,49.66
2017-01-21T02:22:11.748Z,49.48
2017-01-21T02:22:52.200Z,49.57
2017-01-21T02:23:32.735Z,49.38
2017-01-21T02:24:13.222Z,49.48
2017-01-21T02:24:53.670Z,49.38
2017-01-21T02:25:34.163Z,49.38
2017-01-21T02:26:14.651Z,49.29
2017-01-21T02:26:55.179Z,49.48
2017-01-21T02:27:35.718Z,49.19
2017-01-21T02:28:16.144Z,49.66
2017-01-21T02:28:56.608Z,49.38
2017-01-21T02:29:37.049Z,49.29
2017-01-21T02:30:17.541Z,49.29
2017-01-21T02:30:58.058Z,49.48
2017-01-21T02:31:38.536Z,49.48
2017-01-21T02:32:19.005Z,50.04
2017-01-21T02:32:59.514Z,50.04
2017-01-21T02:33:39.995Z,50.23
2017-01-21T02:34:20.543Z,50.14
2017-01-21T02:35:01.078Z,50.23
2017-01-21T02:35:41.561Z,50.33
2017-01-21T02:36:22.060Z,49.95
2017-01-21T02:37:02.557Z,49.95
2017-01-21T02:37:43.039Z,50.14
2017-01-21T02:38:23.511Z,50.11
2017-01-21T02:39:04.016Z,49.85
2017-01-21T02:39:44.512Z,50.33
2017-01-21T02:40:25.005Z,50.14
2017-01-21T02:41:05.507Z,50.14
2017-01-21T02:41:45.990Z,50.14
2017-01-21T02:42:26.500Z,50.33
2017-01-21T02:43:06.970Z,49.85
2017-01-21T02:43:47.452Z,50.04
2017-01-21T02:44:27.940Z,50.14
2017-01-21T02:45:08.420Z,50.42
2017-01-21T02:45:48.906Z,50.14
2017-01-21T02:46:29.403Z,49.76
2017-01-21T02:47:09.867Z,49.76
2017-01-21T02:47:50.393Z,49.76
2017-01-21T02:48:30.849Z,49.95
2017-01-21T02:49:11.348Z,50.42
2017-01-21T02:49:51.844Z,50.33
2017-01-21T02:50:32.342Z,50.04
2017-01-21T02:51:12.870Z,50.04
2017-01-21T02:51:53.337Z,50.3
2017-01-21T02:52:33.847Z,50.23
2017-01-21T02:53:14.330Z,50.42
2017-01-21T02:53:54.810Z,50.23
2017-01-21T02:54:35.323Z,50.23
2017-01-21T02:55:15.798Z,50.11
2017-01-21T02:55:56.340Z,50.33
2017-01-21T02:56:36.780Z,50.33
2017-01-21T02:57:17.264Z,50.04
2017-01-21T02:57:57.776Z,49.57
2017-01-21T02:58:38.290Z,49.85
2017-01-21T02:59:18.778Z,49.85
2017-01-21T02:59:59.266Z,50.04
2017-01-21T03:00:39.816Z,50.04
2017-01-21T03:01:20.304Z,50.14
2017-01-21T03:02:00.784Z,49.85
2017-01-21T03:02:41.304Z,50.04
2017-01-21T03:03:21.778Z,50.33
2017-01-21T03:04:02.250Z,50.33
2017-01-21T03:04:42.801Z,50.04
2017-01-21T03:05:23.311Z,50.33
2017-01-21T03:06:03.766Z,50.33
2017-01-21T03:06:44.297Z,50.23
2017-01-21T03:07:24.779Z,50.04
2017-01-21T03:08:05.314Z,50.14
2017-01-21T03:08:45.746Z,50.04
2017-01-21T03:09:26.242Z,49.95
2017-01-21T03:10:06.761Z,50.04
2017-01-21T03:10:47.256Z,50.14
2017-01-21T03:11:27.726Z,50.14
2017-01-21T03:12:08.256Z,49.92
2017-01-21T03:12:48.700Z,50.33
2017-01-21T03:13:29.195Z,49.95
2017-01-21T03:14:09.692Z,50.14
2017-01-21T03:14:50.186Z,50.02
2017-01-21T03:15:30.670Z,50.04
2017-01-21T03:16:11.145Z,50.02
2017-01-21T03:16:51.634Z,50.14
2017-01-21T03:17:32.116Z,50.23
2017-01-21T03:18:12.633Z,50.04
2017-01-21T03:18:53.079Z,50.14
2017-01-21T03:19:33.585Z,49.48
2017-01-21T03:20:14.100Z,49.57
2017-01-21T03:20:54.545Z,49.48
2017-01-21T03:21:35.038Z,49.29
2017-01-21T03:22:15.549Z,49.48
2017-01-21T03:22:56.057Z,49.38
2017-01-21T03:23:36.571Z,49.29
2017-01-21T03:24:17.078Z,49.45
2017-01-21T03:24:57.564Z,49.76
2017-01-21T03:25:38.045Z,50.02
2017-01-21T03:26:18.539Z,50.02
2017-01-21T03:26:59.032Z,50.3
2017-01-21T03:27:39.537Z,50.3
2017-01-21T03:28:20.046Z,50.23
2017-01-21T03:29:00.552Z,50.14
2017-01-21T03:29:41.025Z,49.95
2017-01-21T03:30:21.622Z,49.57
2017-01-21T03:31:02.132Z,49.73
2017-01-21T03:31:42.631Z,50.02
2017-01-21T03:32:23.096Z,50.3
2017-01-21T03:33:03.561Z,50.3
2017-01-21T03:33:44.069Z,50.33
2017-01-21T03:34:24.529Z,50.02
2017-01-21T03:35:05.028Z,50.3
2017-01-21T03:35:45.549Z,50.02
2017-01-21T03:36:26.106Z,50.02
2017-01-21T03:37:06.563Z,50.3
2017-01-21T03:37:47.086Z,50.21
2017-01-21T03:38:27.575Z,50.21
2017-01-21T03:39:08.072Z,50.11
2017-01-21T03:39:48.576Z,50.59
2017-01-21T03:40:29.075Z,50.68
2017-01-21T03:41:09.556Z,50.68
2017-01-21T03:41:50.069Z,50.49
2017-01-21T03:42:30.583Z,50.49
2017-01-21T03:43:11.063Z,50.11
2017-01-21T03:43:51.570Z,50.11
2017-01-21T03:44:32.090Z,49.83
2017-01-21T03:45:12.564Z,50.3
2017-01-21T03:45:53.084Z,50.3
2017-01-21T03:46:33.575Z,50.02
2017-01-21T03:47:14.058Z,50.02
2017-01-21T03:47:54.528Z,50.02
2017-01-21T03:48:35.010Z,50.3
2017-01-21T03:49:15.503Z,50.21
2017-01-21T03:49:55.999Z,50.49
2017-01-21T03:50:36.505Z,50.49
2017-01-21T03:51:17.033Z,50.49
2017-01-21T03:51:57.539Z,50.59
2017-01-21T03:52:38.029Z,51.06
2017-01-21T03:53:18.539Z,50.4
2017-01-21T03:53:59.022Z,50.68
2017-01-21T03:54:39.495Z,50.02
2017-01-21T03:55:19.998Z,50.4
2017-01-21T03:56:00.498Z,50.3
2017-01-21T03:56:40.999Z,50.3
2017-01-21T03:57:21.497Z,50.11
2017-01-21T03:58:01.988Z,50.02
2017-01-21T03:58:42.516Z,50.3
2017-01-21T03:59:23.006Z,50.11
2017-01-21T04:00:03.491Z,50.3
2017-01-21T04:00:43.982Z,50.3
2017-01-21T04:01:24.486Z,49.92
2017-01-21T04:02:04.983Z,50.11
2017-01-21T04:02:45.462Z,50.3
2017-01-21T04:03:25.984Z,50.3
2017-01-21T04:04:06.468Z,50.11
2017-01-21T04:04:46.988Z,50.02
2017-01-21T04:05:27.460Z,50.02
2017-01-21T04:06:07.971Z,50.11
2017-01-21T04:06:48.499Z,50.04
2017-01-21T04:07:28.968Z,50.21
2017-01-21T04:08:09.478Z,50.21
2017-01-21T04:08:49.964Z,50.49
2017-01-21T04:09:30.425Z,50.3
2017-01-21T04:10:10.894Z,50.21
2017-01-21T04:10:51.448Z,50.21
2017-01-21T04:11:32.048Z,50.11
2017-01-21T04:13:20.057Z,50.49
2017-01-21T04:14:00.544Z,50.68
2017-01-21T04:14:41.047Z,50.68
2017-01-21T04:15:21.512Z,50.11
2017-01-21T04:16:02.019Z,50.21
2017-01-21T04:16:42.547Z,50.02
2017-01-21T04:17:23.027Z,50.02
2017-01-21T04:18:03.512Z,50.3
2017-01-21T04:18:44.006Z,50.21
2017-01-21T04:19:24.485Z,50.49
2017-01-21T04:20:05.008Z,50.68
2017-01-21T04:20:45.502Z,50.4
2017-01-21T04:21:26.000Z,50.3
2017-01-21T04:22:06.499Z,50.3
2017-01-21T04:22:46.984Z,50.21
2017-01-21T04:23:27.472Z,50.11
2017-01-21T04:24:08.088Z,50.3
2017-01-21T04:24:48.613Z,50.21
2017-01-21T04:25:29.115Z,50.02
2017-01-21T04:26:09.572Z,50.21
2017-01-21T04:26:50.066Z,50.02
2017-01-21T04:27:30.584Z,50.3
2017-01-21T04:28:11.070Z,50.21
2017-01-21T04:28:51.595Z,50.78
2017-01-21T04:29:32.068Z,50.87
2017-01-21T04:30:12.533Z,51.06
2017-01-21T04:30:53.040Z,50.87
2017-01-21T04:31:33.540Z,50.96
2017-01-21T04:32:14.055Z,51.25
2017-01-21T04:32:54.514Z,50.96
2017-01-21T04:33:34.977Z,51.06
2017-01-21T04:34:15.495Z,50.87
2017-01-21T04:34:56.004Z,50.96
2017-01-21T04:35:36.442Z,51.06
2017-01-21T04:36:16.942Z,50.87
2017-01-21T04:36:57.421Z,51.15
2017-01-21T04:37:37.920Z,50.96
2017-01-21T04:38:18.416Z,51.06
2017-01-21T04:38:58.892Z,50.78
2017-01-21T04:39:39.388Z,51.06
2017-01-21T04:40:19.860Z,51.15
2017-01-21T04:41:00.375Z,50.96
2017-01-21T04:41:40.858Z,50.96
2017-01-21T04:42:21.371Z,50.96
2017-01-21T04:43:01.844Z,51.43
2017-01-21T04:43:42.339Z,51.72
2017-01-21T04:44:22.859Z,50.87
2017-01-21T04:45:03.352Z,50.96
2017-01-21T04:45:43.838Z,50.68
2017-01-21T04:46:24.374Z,50.4
2017-01-21T04:47:04.803Z,50.59
2017-01-21T04:47:45.314Z,50.59
2017-01-21T04:48:25.816Z,50.59
2017-01-21T04:49:06.307Z,50.68
2017-01-21T04:49:46.794Z,50.21
2017-01-21T04:50:27.304Z,50.49
2017-01-21T04:51:07.809Z,50.96
2017-01-21T04:51:48.326Z,50.68
2017-01-21T04:52:28.796Z,51.69
2017-01-21T04:53:09.288Z,51.25
2017-01-21T04:53:49.748Z,51.34
2017-01-21T04:54:30.250Z,51.25
2017-01-21T04:55:10.745Z,51.15
2017-01-21T04:55:51.216Z,51.34
2017-01-21T04:56:31.731Z,51.34
2017-01-21T04:57:12.236Z,51.15
2017-01-21T04:57:52.744Z,51.53
2017-01-21T04:58:33.212Z,51.43
2017-01-21T04:59:13.759Z,51.43
2017-01-21T04:59:54.201Z,51.34
2017-01-21T05:00:34.682Z,51.43
2017-01-21T05:01:15.171Z,51.81
2017-01-21T05:01:55.636Z,51.43
2017-01-21T05:02:36.161Z,51.53
2017-01-21T05:03:16.643Z,51.72
2017-01-21T05:03:57.129Z,51.53
2017-01-21T05:04:37.717Z,51.25
2017-01-21T05:05:18.138Z,51.43
2017-01-21T05:05:58.622Z,51.5
2017-01-21T05:06:39.069Z,51.5
2017-01-21T05:07:19.611Z,51.6
2017-01-21T05:08:00.049Z,51.98
2017-01-21T05:08:40.522Z,52.07
2017-01-21T05:09:21.018Z,51.88
2017-01-21T05:10:01.497Z,52.07
2017-01-21T05:10:41.989Z,52.45
2017-01-21T05:11:22.503Z,52.17
2017-01-21T05:12:03.041Z,51.98
2017-01-21T05:12:43.553Z,52.26
2017-01-21T05:13:24.068Z,52.17
2017-01-21T05:14:04.594Z,52
2017-01-21T05:14:45.018Z,52.07
2017-01-21T05:15:25.514Z,51.79
2017-01-21T05:16:06.018Z,52.45
2017-01-21T05:16:46.495Z,51.79
2017-01-21T05:17:26.984Z,51.88
2017-01-21T05:18:07.487Z,51.6
2017-01-21T05:18:47.965Z,51.88
2017-01-21T05:19:28.477Z,52.36
2017-01-21T05:20:08.968Z,52.17
2017-01-21T05:20:49.440Z,51.98
2017-01-21T05:21:29.959Z,52.07
2017-01-21T05:22:10.423Z,52.26
2017-01-21T05:22:50.934Z,52.07
2017-01-21T05:23:31.377Z,51.98
2017-01-21T05:24:11.881Z,52.26
2017-01-21T05:24:52.394Z,52.26
2017-01-21T05:25:32.879Z,52.26
2017-01-21T05:26:13.374Z,52.55
2017-01-21T05:26:53.843Z,52.38
2017-01-21T05:27:34.350Z,52.36
2017-01-21T05:28:14.829Z,52.38
2017-01-21T05:28:55.332Z,52.29
2017-01-21T05:29:35.840Z,52
2017-01-21T05:30:16.250Z,52.36
2017-01-21T05:30:56.745Z,52.07
2017-01-21T05:31:37.226Z,52.26
2017-01-21T05:32:17.733Z,52.26
2017-01-21T05:32:58.204Z,52.55
2017-01-21T05:33:38.716Z,52.19
2017-01-21T05:34:19.204Z,51.91
2017-01-21T05:34:59.646Z,52.29
2017-01-21T05:35:40.147Z,52.29
2017-01-21T05:36:20.645Z,52.1
2017-01-21T05:37:01.138Z,52.07
2017-01-21T05:37:41.665Z,52.17
2017-01-21T05:38:22.132Z,52.38
2017-01-21T05:39:02.668Z,51.81
2017-01-21T05:39:43.165Z,51.91
2017-01-21T05:40:23.620Z,52.29
2017-01-21T05:41:04.096Z,51.62
2017-01-21T05:41:44.563Z,51.25
2017-01-21T05:42:25.043Z,51.43
2017-01-21T05:43:05.558Z,51.53
2017-01-21T05:43:46.052Z,51.34
2017-01-21T05:44:26.560Z,51.69
2017-01-21T05:45:07.079Z,52.26
2017-01-21T05:45:47.639Z,52.26
2017-01-21T05:46:28.083Z,52
2017-01-21T05:47:08.590Z,52.07
2017-01-21T05:47:49.094Z,52.07
2017-01-21T05:48:29.604Z,52.07
2017-01-21T05:49:10.094Z,52.48
2017-01-21T05:49:50.601Z,52.38
2017-01-21T05:50:31.140Z,51.53
2017-01-21T05:51:11.566Z,51.72
2017-01-21T05:51:52.052Z,52.19
2017-01-21T05:52:32.568Z,51.62
2017-01-21T05:53:13.064Z,52.45
2017-01-21T05:53:53.561Z,52.17
2017-01-21T05:54:34.031Z,51.79
2017-01-21T05:55:14.518Z,52.26
2017-01-21T05:55:55.004Z,52.07
2017-01-21T05:56:35.487Z,51.98
2017-01-21T05:57:15.982Z,52.07
2017-01-21T05:57:56.457Z,52.19
2017-01-21T05:58:36.967Z,51.88
2017-01-21T05:59:17.425Z,51.91
2017-01-21T05:59:58.004Z,51.62
2017-01-21T06:00:38.453Z,51.43
2017-01-21T06:01:18.961Z,51.43
2017-01-21T06:01:59.398Z,51.25
2017-01-21T06:02:39.904Z,51.34
2017-01-21T06:03:20.392Z,51.25
2017-01-21T06:04:00.900Z,51.15
2017-01-21T06:04:41.403Z,51.25
2017-01-21T06:05:21.900Z,51.25
2017-01-21T06:06:02.396Z,51.43
2017-01-21T06:06:42.872Z,51.25
2017-01-21T06:07:23.373Z,51.53
2017-01-21T06:08:03.854Z,51.43
2017-01-21T06:08:44.357Z,51.62
2017-01-21T06:09:24.875Z,50.96
2017-01-21T06:10:05.323Z,50.96
2017-01-21T06:10:45.831Z,50.49
2017-01-21T06:11:26.363Z,50.59
2017-01-21T06:12:06.854Z,51.25
2017-01-21T06:12:47.358Z,50.87
2017-01-21T06:13:27.810Z,50.78
2017-01-21T06:14:08.310Z,50.78
2017-01-21T06:14:48.814Z,50.78
2017-01-21T06:15:29.307Z,50.96
2017-01-21T06:16:09.783Z,50.94
2017-01-21T06:16:50.286Z,51.5
2017-01-21T06:17:30.780Z,51.6
2017-01-21T06:18:11.280Z,51.5
2017-01-21T06:18:51.809Z,51.69
2017-01-21T06:19:32.308Z,51.32
2017-01-21T06:20:12.761Z,51.22
2017-01-21T06:20:53.255Z,51.22
2017-01-21T06:21:33.768Z,51.34
2017-01-21T06:22:14.290Z,51.62
2017-01-21T06:22:54.748Z,51.62
2017-01-21T06:23:35.255Z,51.5
2017-01-21T06:24:15.738Z,51.53
2017-01-21T06:24:56.233Z,51.15
2017-01-21T06:25:36.769Z,50.96
2017-01-21T06:26:17.290Z,50.87
2017-01-21T06:26:57.818Z,50.96
2017-01-21T06:27:38.297Z,50.87
2017-01-21T06:28:18.764Z,51.15
2017-01-21T06:28:59.244Z,50.65
2017-01-21T06:29:39.755Z,50.96
2017-01-21T06:30:20.247Z,51.25
2017-01-21T06:31:00.769Z,50.94
2017-01-21T06:31:41.226Z,51.69
2017-01-21T06:32:21.711Z,51.6
2017-01-21T06:33:02.210Z,51.41
2017-01-21T06:33:42.712Z,51.5
2017-01-21T06:34:23.201Z,51.41
2017-01-21T06:35:03.695Z,51.32
2017-01-21T06:35:44.167Z,51.69
2017-01-21T06:36:24.653Z,52.17
2017-01-21T06:37:05.167Z,51.98
2017-01-21T06:37:45.670Z,51.98
2017-01-21T06:38:26.199Z,52.07
2017-01-21T06:39:06.612Z,52.07
2017-01-21T06:39:47.140Z,51.98
2017-01-21T06:40:27.582Z,52.07
2017-01-21T06:41:08.099Z,51.98
2017-01-21T06:41:48.594Z,51.88
2017-01-21T06:42:29.085Z,52.07
2017-01-21T06:43:09.588Z,51.5
2017-01-21T06:43:50.076Z,51.6
2017-01-21T06:44:30.540Z,51.88
2017-01-21T06:45:11.035Z,51.98
2017-01-21T06:45:51.491Z,52.07
2017-01-21T06:46:31.993Z,52.17
2017-01-21T06:48:19.979Z,51.69
2017-01-21T06:49:00.463Z,51.41
2017-01-21T06:49:40.952Z,51.32
2017-01-21T06:50:21.468Z,51.6
2017-01-21T06:51:01.957Z,51.79
2017-01-21T06:51:42.447Z,51.6
2017-01-21T06:52:22.911Z,52.45
2017-01-21T06:53:03.423Z,52.17
2017-01-21T06:53:43.895Z,52.26
2017-01-21T06:54:24.391Z,52.07
2017-01-21T06:55:04.844Z,52.17
2017-01-21T06:55:45.333Z,52.26
2017-01-21T06:56:25.825Z,52.17
2017-01-21T06:57:06.342Z,51.69
2017-01-21T06:57:46.811Z,52.36
2017-01-21T06:58:27.293Z,52.26
2017-01-21T06:59:07.797Z,52.45
2017-01-21T06:59:48.259Z,52.64
2017-01-21T07:00:28.769Z,52.36
2017-01-21T07:01:09.311Z,52.26
2017-01-21T07:01:49.809Z,52.07
2017-01-21T07:02:30.274Z,51.98
2017-01-21T07:03:10.775Z,52.07
2017-01-21T07:03:51.267Z,51.98
2017-01-21T07:04:31.732Z,52.45
2017-01-21T07:05:12.202Z,52.26
2017-01-21T07:05:52.674Z,51.98
2017-01-21T07:06:33.175Z,51.88
2017-01-21T07:07:13.649Z,52.36
2017-01-21T07:07:54.147Z,52.45
2017-01-21T07:08:34.654Z,52.26
2017-01-21T07:09:15.116Z,52.73
2017-01-21T07:09:55.582Z,53.3
2017-01-21T07:10:36.082Z,53.11
2017-01-21T07:11:16.619Z,53.49
2017-01-21T07:11:57.025Z,53.49
2017-01-21T07:12:37.540Z,53.3
2017-01-21T07:13:18.013Z,53.2
2017-01-21T07:13:58.517Z,53.11
2017-01-21T07:14:39.103Z,53.02
2017-01-21T07:15:19.549Z,52.92
2017-01-21T07:16:00.064Z,52.73
2017-01-21T07:16:40.530Z,53.02
2017-01-21T07:17:21.013Z,53.2
2017-01-21T07:18:01.517Z,53.39
2017-01-21T07:18:42.075Z,53.2
2017-01-21T07:19:22.626Z,53.11
2017-01-21T07:20:03.097Z,53.3
2017-01-21T07:20:43.579Z,53.39
2017-01-21T07:21:24.074Z,53.39
2017-01-21T07:22:04.555Z,53.3
2017-01-21T07:22:45.040Z,53.3
2017-01-21T07:23:25.629Z,53.11
2017-01-21T07:24:06.120Z,52.83
2017-01-21T07:24:46.590Z,53.39
2017-01-21T07:25:27.081Z,53.49
2017-01-21T07:26:07.581Z,53.2
2017-01-21T07:26:48.032Z,52.83
2017-01-21T07:27:28.521Z,52.92
2017-01-21T07:28:08.976Z,52.36
2017-01-21T07:28:49.439Z,51.88
2017-01-21T07:29:29.909Z,51.98
2017-01-21T07:30:10.450Z,52.17
2017-01-21T07:30:50.939Z,51.6
2017-01-21T07:31:31.411Z,51.5
2017-01-21T07:32:11.922Z,52.07
2017-01-21T07:32:52.448Z,51.98
2017-01-21T07:33:32.831Z,52.07
2017-01-21T07:34:13.337Z,52.45
2017-01-21T07:34:53.790Z,51.69
2017-01-21T07:35:34.291Z,51.79
2017-01-21T07:36:14.819Z,51.6
2017-01-21T07:36:55.917Z,51.32
2017-01-21T07:37:36.419Z,51.32
2017-01-21T07:38:16.910Z,51.79
2017-01-21T07:38:57.413Z,51.98
2017-01-21T07:39:38.145Z,51.98
2017-01-21T07:40:18.816Z,51.98
2017-01-21T07:40:59.350Z,51.98
2017-01-21T07:41:39.802Z,51.98
2017-01-21T07:42:20.327Z,51.98
2017-01-21T07:43:00.812Z,51.69
2017-01-21T07:43:41.376Z,52.26
2017-01-21T07:44:21.790Z,52.17
2017-01-21T07:45:02.321Z,52.36
2017-01-21T07:45:42.845Z,52.26
2017-01-21T07:46:23.310Z,52.45
2017-01-21T07:47:03.801Z,52.17
2017-01-21T07:47:44.923Z,52.07
2017-01-21T07:48:25.388Z,52.45
2017-01-21T07:49:05.914Z,51.98
2017-01-21T07:49:46.467Z,52.26
2017-01-21T07:50:27.076Z,52.64
2017-01-21T07:51:07.572Z,53.02
2017-01-21T07:51:48.075Z,52.45
2017-01-21T07:52:28.550Z,52.07
2017-01-21T07:53:09.099Z,52.07
2017-01-21T07:53:49.704Z,52.45
2017-01-21T07:54:30.181Z,52.36
2017-01-21T07:55:10.667Z,51.79
2017-01-21T07:55:51.247Z,51.5
2017-01-21T07:56:31.744Z,52.36
2017-01-21T07:57:12.211Z,52.07
2017-01-21T07:57:52.798Z,51.88
2017-01-21T07:58:33.331Z,52.07
2017-01-21T07:59:14.241Z,52.26
2017-01-21T07:59:54.750Z,52.36
2017-01-21T08:00:35.252Z,52.64
2017-01-21T08:01:15.852Z,52.83
2017-01-21T08:01:56.370Z,52.26
2017-01-21T08:02:36.875Z,52.36
2017-01-21T08:03:17.379Z,51.98
2017-01-21T08:03:57.821Z,52.26
2017-01-21T08:04:38.306Z,52.17
2017-01-21T08:05:18.797Z,52.07
2017-01-21T08:05:59.362Z,52.45
2017-01-21T08:06:39.789Z,51.88
2017-01-21T08:07:20.315Z,51.62
2017-01-21T08:08:00.797Z,51.22
2017-01-21T08:08:41.382Z,51.13
2017-01-21T08:09:21.979Z,51.53
2017-01-21T08:10:02.478Z,51.62
2017-01-21T08:10:42.950Z,51.69
2017-01-21T08:11:23.414Z,51.62
2017-01-21T08:12:03.894Z,51.32
2017-01-21T08:12:44.403Z,51.25
2017-01-21T08:13:25.033Z,51.41
2017-01-21T08:14:05.532Z,51.5
2017-01-21T08:14:46.033Z,51.32
2017-01-21T08:15:26.601Z,51.34
2017-01-21T08:16:07.182Z,51.15
2017-01-21T08:16:47.702Z,51.15
2017-01-21T08:17:28.207Z,51.15
2017-01-21T08:18:08.707Z,51.25
2017-01-21T08:18:49.181Z,51.43
2017-01-21T08:22:36.267Z,51.25
2017-01-21T08:23:16.805Z,51.34
2017-01-21T08:23:57.458Z,51.15
2017-01-21T08:24:38.185Z,51.25
2017-01-21T08:25:18.745Z,51.5
2017-01-21T08:25:59.263Z,51.72
2017-01-21T08:26:39.713Z,51.81
2017-01-21T08:27:20.188Z,51.72
2017-01-21T08:28:00.643Z,51.53
2017-01-21T08:28:41.295Z,51.53
2017-01-21T08:29:21.946Z,51.72
2017-01-21T08:30:02.499Z,51.91
2017-01-21T08:30:43.364Z,51.43
2017-01-21T08:31:23.878Z,51.34
2017-01-21T08:32:04.423Z,51.53
2017-01-21T08:32:44.901Z,51.43
2017-01-21T08:33:26.686Z,51.34
2017-01-21T08:34:07.267Z,51.25
2017-01-21T08:34:47.854Z,51.62
2017-01-21T08:35:28.378Z,50.78
2017-01-21T08:36:08.895Z,50.96
2017-01-21T08:36:49.379Z,51.06
2017-01-21T08:37:29.918Z,50.87
2017-01-21T08:38:10.423Z,51.06
2017-01-21T08:38:51.193Z,50.78
2017-01-21T08:39:32.025Z,50.49
2017-01-21T08:40:12.564Z,50.87
2017-01-21T08:40:53.035Z,50.49
2017-01-21T08:41:33.651Z,50.96
2017-01-21T08:42:14.081Z,50.68
2017-01-21T08:42:54.528Z,50.78
2017-01-21T08:43:35.201Z,50.68
2017-01-21T08:44:15.608Z,50.11
2017-01-21T08:44:56.883Z,50.49
2017-01-21T08:45:38.353Z,50.4
2017-01-21T08:46:18.951Z,49.92
2017-01-21T08:47:00.135Z,50.11
2017-01-21T08:47:40.981Z,50.02
2017-01-21T08:48:21.713Z,49.73
2017-01-21T08:49:02.224Z,49.83